Deer Trail, Colorado
Current Conditions -  °F | °C
As of 2:55 AM on Tuesday 21 Oct 2014 (Local Time) from KLIC Reporting Station
Clear Clear  
Wind Chill: 39°   Ceiling: Unl
Heat Index: 43°   Visibility: 10mi
Dew Point: 42°   Wind: 7mph
Humidity: 97%   Direction: 130°SE
Pressure: 30.1"   Gusts: NA
Location:  39.61°N, 104.04°W
Report Text: KLIC 210855Z AUTO 13006KT 10SM CLR 06/06 A3010 RMK AO2 SLP144 T00610056 58012
Loading
Personal Weather Stations






























Interactive Weather Map
Tropical Storm Tracking
New forecast layout! Learn more

10-Day Weather Forecast

Advertisements
Track Severe Weather on mobile